createdAt,value
2022-09-16T00:00:02.398Z,20.9
2022-09-16T00:15:03.625Z,20.9
2022-09-16T00:30:02.364Z,20.8
2022-09-16T00:45:03.555Z,20.8
2022-09-16T01:00:02.789Z,20.8
2022-09-16T01:15:05.623Z,20.7
2022-09-16T01:30:02.388Z,20.7
2022-09-16T01:45:06.670Z,20.7
2022-09-16T02:00:02.771Z,20.7
2022-09-16T02:30:02.429Z,20.8
2022-09-16T02:45:02.760Z,20.8
2022-09-16T03:00:04.386Z,20.8
2022-09-16T03:20:02.890Z,20.8
2022-09-16T03:50:03.788Z,20.9
2022-09-16T04:05:06.452Z,20.9
2022-09-16T04:20:05.340Z,21
2022-09-16T04:50:05.464Z,21.5
2022-09-16T05:05:04.661Z,21.9
2022-09-16T05:20:06.481Z,22.3
2022-09-16T05:40:03.756Z,22.6
2022-09-16T05:55:03.359Z,22.8
2022-09-16T06:10:03.403Z,22.8
2022-09-16T06:25:06.351Z,22.8
2022-09-16T06:40:06.515Z,22.7
2022-09-16T06:55:04.726Z,22.7
2022-09-16T07:10:05.809Z,22.6
2022-09-16T07:25:03.638Z,22.6
2022-09-16T07:55:03.711Z,22.5
2022-09-16T08:10:03.602Z,22.6
2022-09-16T08:40:06.864Z,22.6
2022-09-16T09:00:02.587Z,22.6
2022-09-16T09:30:05.725Z,22.6
2022-09-16T10:00:03.606Z,22.6
2022-09-16T10:20:05.774Z,22.6
2022-09-16T10:35:02.548Z,22.6
2022-09-16T11:05:03.771Z,22.7
2022-09-16T11:20:06.790Z,22.7
2022-09-16T11:35:03.531Z,22.7
2022-09-16T11:55:02.574Z,22.8
2022-09-16T12:25:04.871Z,22.8
2022-09-16T12:40:03.498Z,22.7
2022-09-16T12:55:03.605Z,22.7
2022-09-16T13:10:04.571Z,22.7
2022-09-16T13:40:04.327Z,22.6
2022-09-16T13:55:04.603Z,22.7
2022-09-16T14:10:04.645Z,22.8
2022-09-16T14:25:06.664Z,22.9
2022-09-16T14:40:03.515Z,23.1
2022-09-16T14:55:04.561Z,23.2
2022-09-16T15:10:03.721Z,23.3
2022-09-16T15:25:04.936Z,23.3
2022-09-16T15:40:02.862Z,23.3
2022-09-16T15:55:02.390Z,23.3
2022-09-16T16:10:04.764Z,23.3
2022-09-16T16:40:06.474Z,23.1
2022-09-16T16:55:04.753Z,23
2022-09-16T17:10:04.702Z,22.9
2022-09-16T17:25:03.553Z,22.8
2022-09-16T17:55:04.505Z,22.6
2022-09-16T18:10:04.663Z,22.5
2022-09-16T18:25:05.431Z,22.5
2022-09-16T18:40:03.894Z,22.4
2022-09-16T18:55:03.603Z,22.4
2022-09-16T19:10:05.858Z,22.3
2022-09-16T19:25:04.741Z,22.2
2022-09-16T19:40:05.822Z,22.1
2022-09-16T20:00:03.796Z,21.9
2022-09-16T20:15:03.940Z,21.7
2022-09-16T20:30:06.971Z,21.5
2022-09-16T20:50:02.430Z,21.3
2022-09-16T21:05:06.652Z,21.1
2022-09-16T21:35:03.865Z,20.9
2022-09-16T21:50:06.506Z,20.8
2022-09-16T22:05:05.866Z,20.7
2022-09-16T22:20:05.550Z,20.6
2022-09-16T22:40:06.816Z,20.5
2022-09-16T22:55:04.837Z,20.4
2022-09-16T23:10:05.749Z,20.4
2022-09-16T23:25:02.677Z,20.3
2022-09-16T23:45:05.505Z,20.2
